createdAt,value
2023-01-31T00:02:26.426Z,12.85
2023-01-31T00:04:54.756Z,12.86
2023-01-31T00:07:23.072Z,12.87
2023-01-31T00:09:51.662Z,12.87
2023-01-31T00:12:19.955Z,12.88
2023-01-31T00:14:48.458Z,12.91
2023-01-31T00:17:16.784Z,12.93
2023-01-31T00:19:45.119Z,12.97
2023-01-31T00:22:13.473Z,13.02
2023-01-31T00:24:41.765Z,13.09
2023-01-31T00:27:10.120Z,13.15
2023-01-31T00:29:38.527Z,13.23
2023-01-31T00:32:07.054Z,13.32
2023-01-31T00:34:35.470Z,13.38
2023-01-31T00:37:04.142Z,13.45
2023-01-31T00:39:32.449Z,13.51
2023-01-31T00:42:00.756Z,13.60
2023-01-31T00:44:29.084Z,13.64
2023-01-31T00:46:57.439Z,13.74
2023-01-31T00:49:25.765Z,13.82
2023-01-31T00:51:54.057Z,13.90
2023-01-31T00:54:22.546Z,14.00
2023-01-31T00:56:50.885Z,14.07
2023-01-31T00:59:19.259Z,14.15
2023-01-31T01:01:47.644Z,14.23
2023-01-31T01:04:15.962Z,14.33
2023-01-31T01:06:44.247Z,14.39
2023-01-31T01:09:12.578Z,14.47
2023-01-31T01:11:40.888Z,14.57
2023-01-31T01:14:09.241Z,14.63
2023-01-31T01:16:40.116Z,14.71
2023-01-31T01:19:13.726Z,14.79
2023-01-31T01:21:42.250Z,14.86
2023-01-31T01:24:15.571Z,14.96
2023-01-31T01:26:44.986Z,15.05
2023-01-31T01:29:13.947Z,15.13
2023-01-31T01:31:42.507Z,15.23
2023-01-31T01:34:15.248Z,15.33
2023-01-31T01:36:46.790Z,15.43
2023-01-31T01:39:16.267Z,15.55
2023-01-31T01:41:45.221Z,15.66
2023-01-31T01:44:50.906Z,15.76
2023-01-31T01:47:47.667Z,15.89
2023-01-31T01:50:37.927Z,16.01
2023-01-31T01:53:24.944Z,16.14
2023-01-31T01:55:58.397Z,16.25
2023-01-31T01:58:30.141Z,16.34
2023-01-31T02:01:02.573Z,16.42
2023-01-31T02:03:41.266Z,16.51
2023-01-31T02:06:09.735Z,16.60
2023-01-31T02:08:41.544Z,16.69
2023-01-31T02:11:29.783Z,16.78
2023-01-31T02:14:05.142Z,16.86
2023-01-31T02:16:33.774Z,16.98
2023-01-31T02:19:02.635Z,17.08
2023-01-31T02:21:39.664Z,17.17
2023-01-31T02:24:19.585Z,17.26
2023-01-31T02:27:18.433Z,17.37
2023-01-31T02:29:58.678Z,17.46
2023-01-31T02:32:59.840Z,17.56
2023-01-31T02:35:40.212Z,17.65
2023-01-31T02:38:24.386Z,17.75
2023-01-31T02:41:01.585Z,17.87
2023-01-31T02:44:00.157Z,17.95
2023-01-31T02:46:45.702Z,18.05
2023-01-31T02:49:38.815Z,18.15
2023-01-31T02:52:18.712Z,18.26
2023-01-31T02:55:42.527Z,18.37
2023-01-31T02:58:14.441Z,18.51
2023-01-31T03:00:46.463Z,18.59
2023-01-31T03:03:23.322Z,18.68
2023-01-31T03:06:40.278Z,18.79
2023-01-31T03:09:37.462Z,18.90
2023-01-31T03:12:24.155Z,19.02
2023-01-31T03:14:58.250Z,19.09
2023-01-31T03:18:00.428Z,19.19
2023-01-31T03:20:44.700Z,19.26
2023-01-31T03:23:19.246Z,19.34
2023-01-31T03:25:49.299Z,19.42
2023-01-31T03:28:24.364Z,19.49
2023-01-31T03:31:21.839Z,19.58
2023-01-31T03:33:53.570Z,19.63
2023-01-31T03:36:58.186Z,19.70
2023-01-31T03:39:38.644Z,19.77
2023-01-31T03:42:18.594Z,19.85
2023-01-31T03:45:11.686Z,19.95
2023-01-31T03:47:44.329Z,20.02
2023-01-31T03:50:21.534Z,20.12
2023-01-31T03:53:33.236Z,20.23
2023-01-31T03:56:50.604Z,20.34
2023-01-31T03:59:27.650Z,20.44
2023-01-31T04:02:00.640Z,20.52
2023-01-31T04:05:05.023Z,20.63
2023-01-31T04:07:33.517Z,20.72
2023-01-31T04:10:02.372Z,20.81
2023-01-31T04:12:30.781Z,20.87
2023-01-31T04:14:59.896Z,20.93
2023-01-31T04:17:28.343Z,20.98
2023-01-31T04:19:56.659Z,21.04
2023-01-31T04:22:24.937Z,21.10
2023-01-31T04:24:53.300Z,21.16
2023-01-31T04:27:21.698Z,21.23
2023-01-31T04:29:50.100Z,21.32
2023-01-31T04:32:18.546Z,21.40
2023-01-31T04:34:46.914Z,21.47
2023-01-31T04:37:15.238Z,21.53
2023-01-31T04:39:43.555Z,21.59
2023-01-31T04:44:53.246Z,21.71
2023-01-31T04:47:21.586Z,21.76
2023-01-31T04:49:49.932Z,21.83
2023-01-31T04:52:18.238Z,21.88
2023-01-31T04:54:46.525Z,21.98
2023-01-31T04:57:14.825Z,22.04
2023-01-31T04:59:43.164Z,22.13
2023-01-31T05:02:11.585Z,22.23
2023-01-31T05:04:39.858Z,22.29
2023-01-31T05:07:08.160Z,22.36
2023-01-31T05:09:36.516Z,22.44
2023-01-31T05:12:06.381Z,22.51
2023-01-31T05:14:34.751Z,22.60
2023-01-31T05:17:03.671Z,22.70
2023-01-31T05:19:32.599Z,22.78
2023-01-31T05:22:01.026Z,22.85
2023-01-31T05:24:34.529Z,22.92
2023-01-31T05:27:04.493Z,22.97
2023-01-31T05:29:34.919Z,23.04
2023-01-31T05:32:04.255Z,23.11
2023-01-31T05:34:34.239Z,23.16
2023-01-31T05:37:03.777Z,23.22
2023-01-31T05:39:33.103Z,23.25
2023-01-31T05:42:01.934Z,23.33
2023-01-31T05:44:30.426Z,23.37
2023-01-31T05:46:58.764Z,23.42
2023-01-31T05:49:27.103Z,23.49
2023-01-31T05:51:55.443Z,23.52
2023-01-31T05:54:23.757Z,23.58
2023-01-31T05:56:52.269Z,23.64
2023-01-31T05:59:20.579Z,23.70
2023-01-31T06:01:48.966Z,23.74
2023-01-31T06:04:17.375Z,23.81
2023-01-31T06:06:46.382Z,23.87
2023-01-31T06:09:14.728Z,23.93
2023-01-31T06:11:43.022Z,23.98
2023-01-31T06:14:11.500Z,24.05
2023-01-31T06:16:39.944Z,24.10
2023-01-31T06:19:08.235Z,24.17
2023-01-31T06:21:37.012Z,24.23
2023-01-31T06:24:05.669Z,24.31
2023-01-31T06:26:33.966Z,24.38
2023-01-31T06:29:02.324Z,24.43
2023-01-31T06:31:30.957Z,24.44
2023-01-31T06:34:02.588Z,24.50
2023-01-31T06:36:34.948Z,24.54
2023-01-31T06:39:05.045Z,24.59
2023-01-31T06:41:33.717Z,24.63
2023-01-31T06:44:02.109Z,24.67
2023-01-31T06:46:30.792Z,24.71
2023-01-31T06:48:59.469Z,24.73
2023-01-31T06:51:27.772Z,24.76
2023-01-31T06:53:57.224Z,24.80
2023-01-31T06:56:25.988Z,24.82
2023-01-31T06:58:54.795Z,24.85
2023-01-31T07:01:25.213Z,24.85
2023-01-31T07:03:54.350Z,24.87
2023-01-31T07:06:26.569Z,24.89
2023-01-31T07:08:55.114Z,24.94
2023-01-31T07:11:23.463Z,24.98
2023-01-31T07:13:51.958Z,25.02
2023-01-31T07:16:20.723Z,25.04
2023-01-31T07:18:49.030Z,25.06
2023-01-31T07:21:17.374Z,25.08
2023-01-31T07:23:46.514Z,25.11
2023-01-31T07:26:15.349Z,25.14
2023-01-31T07:28:43.854Z,25.16
2023-01-31T07:31:15.469Z,25.17
2023-01-31T07:33:43.812Z,25.18
2023-01-31T07:36:15.675Z,25.20
2023-01-31T07:38:44.589Z,25.24
2023-01-31T07:41:13.011Z,25.29
2023-01-31T07:43:41.325Z,25.30
2023-01-31T07:46:11.384Z,25.33
2023-01-31T07:48:40.463Z,25.33
2023-01-31T07:51:09.758Z,25.32
2023-01-31T07:53:45.895Z,25.35
2023-01-31T07:56:20.656Z,25.37
2023-01-31T07:58:51.497Z,25.39
2023-01-31T08:01:42.980Z,25.41
2023-01-31T08:04:21.633Z,25.45
2023-01-31T08:06:55.263Z,25.49
2023-01-31T08:09:26.064Z,25.49
2023-01-31T08:11:54.435Z,25.48
2023-01-31T08:14:26.690Z,25.49
2023-01-31T08:16:57.997Z,25.49
2023-01-31T08:19:27.732Z,25.49
2023-01-31T08:21:56.025Z,25.49
2023-01-31T08:24:24.301Z,25.47
2023-01-31T08:26:52.869Z,25.48
2023-01-31T08:29:24.364Z,25.47
2023-01-31T08:31:53.721Z,25.47
2023-01-31T08:34:24.109Z,25.50
2023-01-31T08:36:52.566Z,25.48
2023-01-31T08:39:20.900Z,25.50
2023-01-31T08:41:49.257Z,25.50
2023-01-31T08:44:17.719Z,25.50
2023-01-31T08:46:46.810Z,25.49
2023-01-31T08:49:18.373Z,25.50
2023-01-31T08:51:56.153Z,25.47
2023-01-31T08:57:14.979Z,25.45
2023-01-31T08:59:50.998Z,25.46
2023-01-31T09:02:26.193Z,25.44
2023-01-31T09:04:54.475Z,25.43
2023-01-31T09:07:22.795Z,25.42
2023-01-31T09:09:51.142Z,25.41
2023-01-31T09:12:19.427Z,25.39
2023-01-31T09:14:47.839Z,25.38
2023-01-31T09:17:16.204Z,25.36
2023-01-31T09:19:44.697Z,25.34
2023-01-31T09:22:13.098Z,25.31
2023-01-31T09:24:41.537Z,25.27
2023-01-31T09:27:10.029Z,25.23
2023-01-31T09:29:38.413Z,25.20
2023-01-31T09:32:06.977Z,25.16
2023-01-31T09:34:35.410Z,25.13
2023-01-31T09:37:03.746Z,25.09
2023-01-31T09:39:32.016Z,25.02
2023-01-31T09:42:18.421Z,24.98
2023-01-31T09:44:58.768Z,24.96
2023-01-31T09:47:35.315Z,24.92
2023-01-31T09:50:22.973Z,24.87
2023-01-31T09:52:51.827Z,24.85
2023-01-31T09:55:26.620Z,24.83
2023-01-31T09:58:28.300Z,24.79
2023-01-31T10:01:25.668Z,24.75
2023-01-31T10:04:15.581Z,24.69
2023-01-31T10:07:10.241Z,24.64
2023-01-31T10:09:41.620Z,24.57
2023-01-31T10:12:27.989Z,24.51
2023-01-31T10:15:14.480Z,24.44
2023-01-31T10:17:51.946Z,24.34
2023-01-31T10:23:03.519Z,24.21
2023-01-31T10:26:11.240Z,24.13
2023-01-31T10:28:45.792Z,24.04
2023-01-31T10:31:36.180Z,23.95
2023-01-31T10:34:18.909Z,23.86
2023-01-31T10:37:06.596Z,23.79
2023-01-31T10:39:37.900Z,23.70
2023-01-31T10:42:34.200Z,23.62
2023-01-31T10:45:20.125Z,23.53
2023-01-31T10:48:19.887Z,23.43
2023-01-31T10:51:14.169Z,23.35
2023-01-31T10:54:04.467Z,23.24
2023-01-31T10:56:36.838Z,23.16
2023-01-31T10:59:26.250Z,23.06
2023-01-31T11:01:54.749Z,22.95
2023-01-31T11:04:26.256Z,22.86
2023-01-31T11:06:55.222Z,22.77
2023-01-31T11:09:25.716Z,22.69
2023-01-31T11:11:57.184Z,22.61
2023-01-31T11:14:25.767Z,22.54
2023-01-31T11:17:06.054Z,22.45
2023-01-31T11:19:48.164Z,22.37
2023-01-31T11:22:38.854Z,22.29
2023-01-31T11:25:08.291Z,22.23
2023-01-31T11:27:45.159Z,22.12
2023-01-31T11:30:23.166Z,22.05
2023-01-31T11:32:51.665Z,21.95
2023-01-31T11:35:19.924Z,21.87
2023-01-31T11:38:05.022Z,21.80
2023-01-31T11:40:36.092Z,21.71
2023-01-31T11:43:07.168Z,21.64
2023-01-31T11:45:39.444Z,21.56
2023-01-31T11:48:20.689Z,21.49
2023-01-31T11:51:05.585Z,21.43
2023-01-31T11:53:50.611Z,21.37
2023-01-31T11:56:21.539Z,21.30
2023-01-31T11:58:55.134Z,21.22
2023-01-31T12:01:27.490Z,21.15
2023-01-31T12:04:03.449Z,21.08
2023-01-31T12:06:41.032Z,21.01
2023-01-31T12:09:25.281Z,20.94
2023-01-31T12:12:00.671Z,20.87
2023-01-31T12:14:43.343Z,20.81
2023-01-31T12:17:17.922Z,20.72
2023-01-31T12:19:55.016Z,20.67
2023-01-31T12:22:29.380Z,20.61
2023-01-31T12:25:29.821Z,20.53
2023-01-31T12:28:34.329Z,20.44
2023-01-31T12:31:31.383Z,20.35
2023-01-31T12:34:23.387Z,20.25
2023-01-31T12:37:09.445Z,20.18
2023-01-31T12:39:58.038Z,20.11
2023-01-31T12:42:38.680Z,20.03
2023-01-31T12:45:40.836Z,19.96
2023-01-31T12:48:27.457Z,19.89
2023-01-31T12:51:32.607Z,19.79
2023-01-31T12:54:23.197Z,19.69
2023-01-31T12:57:23.861Z,19.62
2023-01-31T13:00:03.741Z,19.56
2023-01-31T13:02:50.655Z,19.49
2023-01-31T13:05:37.386Z,19.42
2023-01-31T13:08:29.705Z,19.37
2023-01-31T13:11:10.818Z,19.31
2023-01-31T13:13:47.860Z,19.25
2023-01-31T13:16:28.326Z,19.20
2023-01-31T13:19:02.030Z,19.15
2023-01-31T13:21:44.687Z,19.10
2023-01-31T13:24:47.439Z,19.05
2023-01-31T13:27:31.317Z,19.01
2023-01-31T13:30:09.893Z,18.97
2023-01-31T13:32:49.451Z,18.94
2023-01-31T13:35:29.393Z,18.89
2023-01-31T13:38:04.095Z,18.86
2023-01-31T13:40:45.868Z,18.81
2023-01-31T13:43:17.488Z,18.78
2023-01-31T13:46:00.218Z,18.73
2023-01-31T13:48:46.713Z,18.68
2023-01-31T13:51:20.023Z,18.63
2023-01-31T13:54:14.347Z,18.58
2023-01-31T13:56:43.727Z,18.53
2023-01-31T13:59:12.746Z,18.49
2023-01-31T14:01:51.099Z,18.45
2023-01-31T14:04:19.575Z,18.41
2023-01-31T14:07:03.793Z,18.38
2023-01-31T14:09:41.211Z,18.34
2023-01-31T14:12:18.318Z,18.31
2023-01-31T14:14:52.429Z,18.27
2023-01-31T14:17:29.498Z,18.23
2023-01-31T14:19:57.854Z,18.18
2023-01-31T14:22:34.359Z,18.14
2023-01-31T14:25:16.060Z,18.12
2023-01-31T14:27:54.634Z,18.08
2023-01-31T14:30:25.201Z,18.06
2023-01-31T14:33:12.143Z,18.03
2023-01-31T14:35:55.381Z,18.00
2023-01-31T14:39:07.782Z,17.97
2023-01-31T14:41:47.250Z,17.94
2023-01-31T14:44:53.954Z,17.89
2023-01-31T14:47:54.073Z,17.85
2023-01-31T14:50:42.415Z,17.80
2023-01-31T14:53:51.939Z,17.77
2023-01-31T14:56:35.568Z,17.73
2023-01-31T14:59:04.791Z,17.70
2023-01-31T15:01:37.689Z,17.67
2023-01-31T15:04:07.005Z,17.64
2023-01-31T15:06:41.873Z,17.60
2023-01-31T15:09:37.077Z,17.57
2023-01-31T15:12:08.000Z,17.53
2023-01-31T15:14:50.036Z,17.52
2023-01-31T15:17:35.542Z,17.49
2023-01-31T15:20:29.610Z,17.47
2023-01-31T15:23:05.768Z,17.46
2023-01-31T15:25:44.510Z,17.44
2023-01-31T15:28:26.490Z,17.43
2023-01-31T15:30:59.964Z,17.43
2023-01-31T15:33:37.256Z,17.43
2023-01-31T15:36:28.438Z,17.42
2023-01-31T15:39:00.167Z,17.41
2023-01-31T15:41:41.378Z,17.39
2023-01-31T15:44:14.867Z,17.37
2023-01-31T15:46:45.678Z,17.35
2023-01-31T15:49:38.592Z,17.33
2023-01-31T15:52:18.352Z,17.33
2023-01-31T15:54:58.451Z,17.29
2023-01-31T15:57:32.631Z,17.30
2023-01-31T16:00:01.246Z,17.28
2023-01-31T16:02:38.842Z,17.27
2023-01-31T16:05:08.399Z,17.26
2023-01-31T16:07:36.731Z,17.25
2023-01-31T16:10:05.418Z,17.21
2023-01-31T16:12:45.439Z,17.20
2023-01-31T16:15:23.573Z,17.18
2023-01-31T16:17:54.974Z,17.16
2023-01-31T16:20:41.610Z,17.14
2023-01-31T16:23:26.988Z,17.12
2023-01-31T16:25:58.919Z,17.09
2023-01-31T16:28:31.855Z,17.06
2023-01-31T16:31:27.893Z,17.02
2023-01-31T16:34:01.676Z,16.99
2023-01-31T16:36:35.014Z,16.97
2023-01-31T16:39:07.021Z,16.96
2023-01-31T16:41:57.276Z,16.94
2023-01-31T16:44:37.269Z,16.93
2023-01-31T16:47:05.732Z,16.93
2023-01-31T16:49:38.117Z,16.92
2023-01-31T16:52:17.395Z,16.91
2023-01-31T16:54:54.383Z,16.90
2023-01-31T16:57:38.421Z,16.88
2023-01-31T17:00:25.816Z,16.88
2023-01-31T17:02:59.070Z,16.86
2023-01-31T17:05:32.226Z,16.84
2023-01-31T17:08:01.145Z,16.82
2023-01-31T17:10:32.191Z,16.83
2023-01-31T17:13:10.128Z,16.80
2023-01-31T17:15:38.645Z,16.78
2023-01-31T17:18:06.990Z,16.77
2023-01-31T17:20:35.293Z,16.76
2023-01-31T17:23:03.988Z,16.74
2023-01-31T17:25:35.622Z,16.73
2023-01-31T17:28:05.099Z,16.70
2023-01-31T17:30:35.208Z,16.69
2023-01-31T17:33:03.589Z,16.67
2023-01-31T17:35:38.441Z,16.66
2023-01-31T17:38:07.225Z,16.63
2023-01-31T17:40:35.860Z,16.63
2023-01-31T17:43:05.922Z,16.63
2023-01-31T17:45:34.344Z,16.61
2023-01-31T17:48:02.680Z,16.61
2023-01-31T17:50:31.068Z,16.59
2023-01-31T17:52:59.378Z,16.57
2023-01-31T17:55:27.851Z,16.56
2023-01-31T17:57:56.176Z,16.53
2023-01-31T18:00:24.660Z,16.51
2023-01-31T18:02:53.475Z,16.49
2023-01-31T18:05:30.287Z,16.48
2023-01-31T18:08:06.511Z,16.45
2023-01-31T18:10:34.835Z,16.44
2023-01-31T18:13:03.252Z,16.44
2023-01-31T18:15:31.675Z,16.42
2023-01-31T18:18:00.038Z,16.41
2023-01-31T18:20:28.364Z,16.38
2023-01-31T18:22:56.727Z,16.35
2023-01-31T18:25:25.036Z,16.32
2023-01-31T18:27:53.335Z,16.30
2023-01-31T18:30:21.733Z,16.28
2023-01-31T18:32:50.072Z,16.26
2023-01-31T18:35:18.795Z,16.24
2023-01-31T18:37:48.909Z,16.20
2023-01-31T18:40:17.412Z,16.18
2023-01-31T18:42:45.705Z,16.15
2023-01-31T18:45:14.107Z,16.12
2023-01-31T18:47:42.398Z,16.08
2023-01-31T18:50:11.098Z,16.07
2023-01-31T18:52:43.119Z,16.06
2023-01-31T18:55:12.328Z,16.08
2023-01-31T18:57:40.637Z,16.09
2023-01-31T19:00:10.943Z,16.10
2023-01-31T19:02:39.266Z,16.10
2023-01-31T19:05:09.638Z,16.10
2023-01-31T19:07:37.990Z,16.10
2023-01-31T19:10:06.643Z,16.11
2023-01-31T19:12:34.919Z,16.11
2023-01-31T19:15:03.220Z,16.14
2023-01-31T19:17:31.535Z,16.14
2023-01-31T19:19:59.849Z,16.15
2023-01-31T19:22:29.526Z,16.13
2023-01-31T19:24:58.524Z,16.11
2023-01-31T19:27:26.938Z,16.09
2023-01-31T19:29:55.235Z,16.07
2023-01-31T19:32:23.542Z,16.05
2023-01-31T19:34:53.977Z,16.04
2023-01-31T19:37:22.526Z,16.02
2023-01-31T19:39:50.960Z,16.00
2023-01-31T19:42:19.433Z,15.99
2023-01-31T19:44:47.777Z,15.96
2023-01-31T19:47:16.147Z,15.95
2023-01-31T19:49:44.468Z,15.93
2023-01-31T19:52:12.762Z,15.89
2023-01-31T19:54:42.288Z,15.87
2023-01-31T19:57:10.599Z,15.85
2023-01-31T19:59:39.181Z,15.83
2023-01-31T20:02:07.646Z,15.80
2023-01-31T20:04:36.058Z,15.77
2023-01-31T20:07:04.381Z,15.76
2023-01-31T20:09:32.691Z,15.75
2023-01-31T20:12:01.221Z,15.73
2023-01-31T20:14:30.513Z,15.74
2023-01-31T20:16:59.145Z,15.75
2023-01-31T20:19:27.649Z,15.74
2023-01-31T20:21:56.135Z,15.74
2023-01-31T20:24:24.714Z,15.73
2023-01-31T20:26:53.079Z,15.72
2023-01-31T20:29:21.386Z,15.72
2023-01-31T20:31:52.133Z,15.70
2023-01-31T20:34:20.516Z,15.69
2023-01-31T20:36:48.955Z,15.66
2023-01-31T20:39:17.337Z,15.65
2023-01-31T20:41:45.645Z,15.63
2023-01-31T20:44:14.050Z,15.62
2023-01-31T20:46:42.352Z,15.63
2023-01-31T20:49:10.692Z,15.66
2023-01-31T20:51:39.009Z,15.65
2023-01-31T20:54:07.537Z,15.71
2023-01-31T20:56:35.899Z,15.74
2023-01-31T20:59:04.192Z,15.74
2023-01-31T21:01:32.554Z,15.75
2023-01-31T21:04:01.339Z,15.74
2023-01-31T21:06:29.682Z,15.73
2023-01-31T21:08:58.227Z,15.69
2023-01-31T21:11:26.630Z,15.67
2023-01-31T21:13:54.928Z,15.65
2023-01-31T21:16:23.352Z,15.63
2023-01-31T21:18:51.847Z,15.60
2023-01-31T21:21:25.300Z,15.58
2023-01-31T21:24:00.387Z,15.58
2023-01-31T21:26:28.806Z,15.55
2023-01-31T21:28:57.203Z,15.53
2023-01-31T21:31:25.600Z,15.51
2023-01-31T21:33:54.409Z,15.49
2023-01-31T21:36:25.718Z,15.48
2023-01-31T21:38:55.206Z,15.46
2023-01-31T21:41:41.724Z,15.46
2023-01-31T21:44:10.376Z,15.46
2023-01-31T21:46:38.839Z,15.45
2023-01-31T21:49:07.285Z,15.45
2023-01-31T21:51:35.646Z,15.44
2023-01-31T21:54:04.175Z,15.45
2023-01-31T21:56:32.511Z,15.43
2023-01-31T21:59:00.976Z,15.42
2023-01-31T22:01:35.068Z,15.39
2023-01-31T22:04:04.281Z,15.37
2023-01-31T22:06:39.167Z,15.33
2023-01-31T22:09:12.598Z,15.31
2023-01-31T22:11:41.577Z,15.29
2023-01-31T22:14:12.993Z,15.27
2023-01-31T22:16:42.834Z,15.23
2023-01-31T22:19:15.302Z,15.20
2023-01-31T22:21:44.856Z,15.17
2023-01-31T22:24:13.183Z,15.14
2023-01-31T22:26:44.519Z,15.12
2023-01-31T22:29:16.732Z,15.09
2023-01-31T22:31:46.221Z,15.10
2023-01-31T22:34:16.776Z,15.09
2023-01-31T22:36:45.152Z,15.08
2023-01-31T22:39:16.767Z,15.08
2023-01-31T22:41:47.980Z,15.08
2023-01-31T22:44:16.389Z,15.08
2023-01-31T22:46:44.827Z,15.07
2023-01-31T22:49:13.319Z,15.06
2023-01-31T22:51:41.819Z,15.05
2023-01-31T22:54:10.265Z,15.05
2023-01-31T22:56:38.736Z,15.05
2023-01-31T22:59:07.618Z,15.02
2023-01-31T23:01:38.404Z,15.03
2023-01-31T23:04:09.278Z,15.02
2023-01-31T23:06:38.606Z,15.00
2023-01-31T23:09:07.279Z,14.98
2023-01-31T23:11:35.813Z,14.95
2023-01-31T23:14:04.381Z,14.95
2023-01-31T23:16:50.987Z,14.94
2023-01-31T23:19:19.308Z,14.94
2023-01-31T23:21:49.787Z,14.92
2023-01-31T23:24:19.890Z,14.92
2023-01-31T23:26:48.696Z,14.91
2023-01-31T23:29:17.079Z,14.90
2023-01-31T23:31:45.491Z,14.89
2023-01-31T23:34:13.816Z,14.90
2023-01-31T23:36:42.131Z,14.90
2023-01-31T23:39:11.071Z,14.88
2023-01-31T23:41:39.390Z,14.88
2023-01-31T23:44:07.764Z,14.84
2023-01-31T23:46:36.253Z,14.83
2023-01-31T23:49:04.806Z,14.81
2023-01-31T23:51:34.648Z,14.81
2023-01-31T23:54:03.126Z,14.79
2023-01-31T23:56:31.433Z,14.80
2023-01-31T23:58:59.887Z,14.81
